»·PEaware :: N228Q KPHX-KFLG

N228Q :: KPHX-KFLG

FLIGHT INFORMATION

Flight Status: Arrived
Operator: Privately registered:
United States
More flights under this callsign
Pilot: Bruno O. (13284)
Aircraft: Unknown
(B35)
More flights by this aircraft type
Origin: KPHX Phoenix Sky Harbor Intl
United States
Destination: KFLG Flagstaff Pulliam
United States
More flights between these airports :: More routes between these airports
Route: PXR V327 FLG
File this flight plan on PilotEdge
Remarks:
Altitude:
(Current/Filed)
11,000ft
Speed:
(Current/Filed)
170kts
Departed: 04-May-20 09:35 AM
Arrived: 04-May-20 10:20 AM
Distance/Time
Traveled:
103nm/0:44
Distance/Time
To Go:
Arrived

Flight Plot

Page will automatically refresh every two minutes.

Flight plan parsing failed; only flown route is shown


Map Options




Map Legend


Flown Route
Filed Route
Departure Airport
Arrival Airport
Navaid (VOR, NDB)
Fix

Horizontal Profiles

Position Reports

Time Latitude Longitude Heading Altitude Ground
Speed
04-May-20 09:19 33.426686 -112.024088 297 1138ft 0kts
04-May-20 09:20 33.426686 -112.024088 297 1138ft 0kts
04-May-20 09:21 33.426686 -112.024088 297 1138ft 0kts
04-May-20 09:22 33.426686 -112.024088 297 1138ft 0kts
04-May-20 09:23 33.426686 -112.024088 297 1138ft 0kts
04-May-20 09:24 33.426687 -112.024090 297 1138ft 0kts
04-May-20 09:25 33.426689 -112.024094 297 1138ft 0kts
04-May-20 09:26 33.426690 -112.024096 297 1138ft 0kts
04-May-20 09:27 33.426691 -112.024099 297 1138ft 0kts
04-May-20 09:28 33.426692 -112.024102 297 1138ft 0kts
04-May-20 09:29 33.426694 -112.024105 297 1138ft 0kts
04-May-20 09:30 33.427721 -112.025040 269 1138ft 13kts
04-May-20 09:31 33.427929 -112.026976 345 1138ft 0kts
04-May-20 09:32 33.427933 -112.026978 345 1138ft 0kts
04-May-20 09:33 33.428086 -112.026969 2 1138ft 5kts
04-May-20 09:34 33.429014 -112.013936 92 1205ft 104kts
04-May-20 09:35 33.434950 -111.976703 57 2336ft 121kts
04-May-20 09:36 33.451390 -111.944230 57 3481ft 109kts
04-May-20 09:37 33.472203 -111.928073 344 4684ft 105kts
04-May-20 09:38 33.501785 -111.940090 341 6022ft 120kts
04-May-20 09:39 33.533966 -111.953661 344 7378ft 123kts
04-May-20 09:40 33.565916 -111.941781 18 8612ft 122kts
04-May-20 09:41 33.599298 -111.932172 9 9847ft 123kts
04-May-20 09:42 33.633557 -111.924272 6 10829ft 127kts
04-May-20 09:43 33.671933 -111.915479 6 11048ft 159kts
04-May-20 09:44 33.717625 -111.904830 6 11051ft 171kts
04-May-20 09:45 33.764096 -111.894115 6 11056ft 171kts
04-May-20 09:46 33.811845 -111.883137 6 11061ft 175kts
04-May-20 09:47 33.859612 -111.872106 6 11073ft 174kts
04-May-20 09:48 33.907526 -111.861075 5 11082ft 172kts
04-May-20 09:49 33.954254 -111.850078 6 11099ft 173kts
04-May-20 09:50 34.001874 -111.839096 6 11109ft 172kts
04-May-20 09:51 34.049007 -111.828064 6 11126ft 173kts
04-May-20 09:52 34.096681 -111.817098 6 11142ft 174kts
04-May-20 09:53 34.144251 -111.806067 6 11150ft 168kts
04-May-20 09:54 34.189669 -111.795628 6 11085ft 170kts
04-May-20 09:55 34.237918 -111.788778 2 10854ft 176kts
04-May-20 09:56 34.286260 -111.782564 1 10875ft 167kts
04-May-20 09:57 34.331358 -111.776894 2 10889ft 160kts
04-May-20 09:58 34.376161 -111.771434 1 10898ft 167kts
04-May-20 09:59 34.423614 -111.765402 2 10897ft 173kts
04-May-20 10:00 34.471695 -111.759343 2 10902ft 172kts
04-May-20 10:01 34.519590 -111.753611 2 10905ft 172kts
04-May-20 10:02 34.567147 -111.747359 2 10907ft 167kts
04-May-20 10:03 34.613119 -111.741621 1 10912ft 170kts
04-May-20 10:04 34.660806 -111.735701 1 10915ft 173kts
04-May-20 10:05 34.709002 -111.729537 2 10915ft 174kts
04-May-20 10:06 34.756989 -111.723284 1 10916ft 170kts
04-May-20 10:07 34.804176 -111.717666 2 10911ft 172kts
04-May-20 10:08 34.851745 -111.711548 2 10903ft 166kts
04-May-20 10:09 34.896888 -111.705740 7 10911ft 162kts
04-May-20 10:10 34.938380 -111.682554 21 10926ft 163kts
04-May-20 10:12 34.979669 -111.659865 23 10947ft 163kts
04-May-20 10:13 35.020899 -111.637139 19 10921ft 165kts
04-May-20 10:14 35.069022 -111.618873 15 9994ft 191kts
04-May-20 10:15 35.119872 -111.601750 13 9005ft 176kts
04-May-20 10:16 35.162118 -111.591729 345 8265ft 137kts
04-May-20 10:17 35.175968 -111.624606 253 7877ft 96kts
04-May-20 10:18 35.159749 -111.648569 218 7389ft 90kts
04-May-20 10:19 35.141372 -111.668040 219 7014ft 61kts
04-May-20 10:20 35.139361 -111.671616 313 7014ft 1kts
04-May-20 10:21 35.137839 -111.673528 221 7014ft 15kts
04-May-20 10:22 35.135003 -111.677054 304 7014ft 8kts
04-May-20 10:23 35.135065 -111.677545 218 7014ft 0kts
04-May-20 10:24 35.135065 -111.677545 218 7014ft 0kts
04-May-20 10:25 35.135065 -111.677545 218 7014ft 0kts
04-May-20 10:26 35.135065 -111.677545 218 7014ft 0kts
04-May-20 10:27 35.135065 -111.677545 218 7014ft 0kts
04-May-20 10:27 35.135065 -111.677545 218 7014ft 0kts
04-May-20 10:29 35.135065 -111.677545 218 7014ft 0kts
04-May-20 10:30 35.135065 -111.677545 218 7014ft 0kts
04-May-20 10:30 35.135065 -111.677545 218 7014ft 0kts
04-May-20 10:31 35.135065 -111.677545 218 7014ft 0kts
04-May-20 10:33 35.135064 -111.677546 218 7014ft 0kts
04-May-20 10:33 35.135063 -111.677547 218 7014ft 0kts

Navigation Log

Ident Type
Flight plan parsing failed, navigation log unavailable